createdAt,value
2023-02-23T00:00:21.203Z,95743.69
2023-02-23T00:01:27.629Z,95741.16
2023-02-23T00:02:29.798Z,95743.72
2023-02-23T00:03:34.625Z,95735.16
2023-02-23T00:04:41.539Z,95734.34
2023-02-23T00:05:45.476Z,95735.25
2023-02-23T00:06:52.422Z,95734.38
2023-02-23T00:07:55.071Z,95733.56
2023-02-23T00:09:01.741Z,95733.56
2023-02-23T00:10:06.169Z,95730.97
2023-02-23T00:11:14.302Z,95736.13
2023-02-23T00:12:20.853Z,95738.78
2023-02-23T00:13:25.462Z,95735.44
2023-02-23T00:14:31.999Z,95735.47
2023-02-23T00:15:37.166Z,95738.19
2023-02-23T00:16:47.073Z,95728.84
2023-02-23T00:17:51.945Z,95736.66
2023-02-23T00:19:00.561Z,95734.19
2023-02-23T00:20:08.132Z,95735.16
2023-02-23T00:21:15.392Z,95730.06
2023-02-23T00:22:17.622Z,95737.03
2023-02-23T00:23:22.946Z,95737.13
2023-02-23T00:24:27.138Z,95730.31
2023-02-23T00:25:32.824Z,95732.97
2023-02-23T00:26:36.475Z,95727.88
2023-02-23T00:27:44.506Z,95726.25
2023-02-23T00:28:47.775Z,95731.41
2023-02-23T00:29:52.561Z,95730.56
2023-02-23T00:30:58.433Z,95724.59
2023-02-23T00:32:05.639Z,95735.72
2023-02-23T00:33:07.799Z,95728.91
2023-02-23T00:34:15.614Z,95730.56
2023-02-23T00:35:18.880Z,95723.75
2023-02-23T00:36:25.738Z,95729.75
2023-02-23T00:37:28.381Z,95732.22
2023-02-23T00:38:35.146Z,95735.72
2023-02-23T00:39:48.317Z,95728.81
2023-02-23T00:40:53.695Z,95730.56
2023-02-23T00:42:01.554Z,95734.06
2023-02-23T00:43:13.192Z,95734.88
2023-02-23T00:44:15.548Z,95731.47
2023-02-23T00:45:20.735Z,95736.56
2023-02-23T00:46:25.233Z,95728.78
2023-02-23T00:47:30.418Z,95731.22
2023-02-23T00:48:33.166Z,95726.78
2023-02-23T00:49:38.537Z,95738.69
2023-02-23T00:50:42.109Z,95732.59
2023-02-23T00:51:47.138Z,95734.13
2023-02-23T00:52:49.290Z,95735.75
2023-02-23T00:53:57.304Z,95734.72
2023-02-23T00:55:01.127Z,95727.75
2023-02-23T00:56:08.972Z,95734.47
2023-02-23T00:57:17.035Z,95729.19
2023-02-23T00:58:25.757Z,95730.66
2023-02-23T00:59:29.873Z,95720.19
2023-02-23T01:00:42.320Z,95723.47
2023-02-23T01:01:46.568Z,95732.59
2023-02-23T01:02:57.346Z,95728.28
2023-02-23T01:03:59.572Z,95719.59
2023-02-23T01:05:04.253Z,95722.88
2023-02-23T01:06:09.780Z,95721.06
2023-02-23T01:07:14.699Z,95722.66
2023-02-23T01:08:18.042Z,95722.59
2023-02-23T01:09:29.622Z,95724.25
2023-02-23T01:10:31.566Z,95724.25
2023-02-23T01:11:36.203Z,95725.81
2023-02-23T01:12:38.347Z,95724.13
2023-02-23T01:13:47.551Z,95728.31
2023-02-23T01:14:50.835Z,95725.69
2023-02-23T01:15:55.838Z,95725.69
2023-02-23T01:16:58.164Z,95722.19
2023-02-23T01:18:03.050Z,95723.91
2023-02-23T01:19:06.447Z,95725.56
2023-02-23T01:20:16.083Z,95730.56
2023-02-23T01:21:23.958Z,95718.50
2023-02-23T01:22:26.583Z,95720.22
2023-02-23T01:23:31.494Z,95720.13
2023-02-23T01:24:49.186Z,95714.97
2023-02-23T01:26:00.090Z,95716.66
2023-02-23T01:27:02.420Z,95723.44
2023-02-23T01:28:09.172Z,95713.94
2023-02-23T01:29:15.412Z,95713.03
2023-02-23T01:30:44.510Z,95712.13
2023-02-23T01:31:52.537Z,95713.81
2023-02-23T01:32:57.353Z,95719.75
2023-02-23T01:34:03.585Z,95711.16
2023-02-23T01:35:11.058Z,95714.59
2023-02-23T01:36:13.973Z,95712.75
2023-02-23T01:37:18.912Z,95708.38
2023-02-23T01:38:20.997Z,95703.19
2023-02-23T01:39:25.970Z,95710.84
2023-02-23T01:40:31.469Z,95708.22
2023-02-23T01:41:38.213Z,95710.69
2023-02-23T01:42:42.216Z,95709.88
2023-02-23T01:44:01.002Z,95704.84
2023-02-23T01:45:24.638Z,95716.13
2023-02-23T01:46:32.376Z,95698.97
2023-02-23T01:47:35.362Z,95710.06
2023-02-23T01:48:43.551Z,95704.91
2023-02-23T01:49:45.913Z,95707.50
2023-02-23T01:50:56.097Z,95702.34
2023-02-23T01:52:02.824Z,95704.03
2023-02-23T01:53:08.773Z,95709.03
2023-02-23T01:54:17.574Z,95703.88
2023-02-23T01:55:23.817Z,95710.66
2023-02-23T01:56:33.051Z,95706.31
2023-02-23T01:57:36.476Z,95711.41
2023-02-23T01:58:57.090Z,95707.09
2023-02-23T01:59:59.362Z,95713.00
2023-02-23T02:01:08.694Z,95706.97
2023-02-23T02:02:13.530Z,95706.97
2023-02-23T02:03:24.099Z,95706.13
2023-02-23T02:04:27.354Z,95702.69
2023-02-23T02:05:33.453Z,95705.25
2023-02-23T02:06:39.549Z,95700.75
2023-02-23T02:07:49.332Z,95705.00
2023-02-23T02:08:55.312Z,95710.91
2023-02-23T02:10:14.235Z,95703.19
2023-02-23T02:11:31.093Z,95698.84
2023-02-23T02:12:34.089Z,95692.84
2023-02-23T02:13:40.937Z,95693.69
2023-02-23T02:14:45.852Z,95685.94
2023-02-23T02:16:19.653Z,95684.22
2023-02-23T02:17:31.589Z,95690.28
2023-02-23T02:18:44.417Z,95687.69
2023-02-23T02:20:37.406Z,95692.84
2023-02-23T02:21:51.942Z,95692.13
2023-02-23T02:23:19.923Z,95689.53
2023-02-23T02:24:54.317Z,95693.84
2023-02-23T02:26:09.990Z,95689.44
2023-02-23T02:27:26.949Z,95689.41
2023-02-23T02:29:11.950Z,95700.59
2023-02-23T02:30:44.023Z,95690.91
2023-02-23T02:32:45.459Z,95690.63
2023-02-23T02:34:16.102Z,95689.09
2023-02-23T02:35:48.458Z,95688.34
2023-02-23T02:37:23.178Z,95688.41
2023-02-23T02:38:50.722Z,95691.06
2023-02-23T02:40:16.573Z,95695.38
2023-02-23T02:41:35.488Z,95694.56
2023-02-23T02:42:47.119Z,95685.22
2023-02-23T02:44:19.648Z,95691.19
2023-02-23T02:45:27.396Z,95681.84
2023-02-23T02:46:38.069Z,95691.34
2023-02-23T02:47:46.455Z,95689.66
2023-02-23T02:49:00.759Z,95676.00
2023-02-23T02:50:10.383Z,95684.56
2023-02-23T02:51:24.112Z,95690.56
2023-02-23T02:52:30.766Z,95676.88
2023-02-23T02:53:44.640Z,95682.13
2023-02-23T02:54:53.469Z,95676.84
2023-02-23T02:56:00.924Z,95679.47
2023-02-23T02:57:04.652Z,95684.63
2023-02-23T02:58:11.540Z,95675.22
2023-02-23T02:59:31.809Z,95677.03
2023-02-23T03:00:53.751Z,95680.53
2023-02-23T03:02:16.023Z,95686.59
2023-02-23T03:03:52.316Z,95679.69
2023-02-23T03:05:14.901Z,95682.34
2023-02-23T03:06:35.367Z,95681.56
2023-02-23T03:08:00.753Z,95686.72
2023-02-23T03:09:31.370Z,95683.38
2023-02-23T03:10:57.205Z,95680.00
2023-02-23T03:12:22.996Z,95678.34
2023-02-23T03:13:53.936Z,95680.97
2023-02-23T03:15:23.955Z,95682.78
2023-02-23T03:17:02.784Z,95681.13
2023-02-23T03:18:34.089Z,95678.47
2023-02-23T03:19:56.541Z,95680.16
2023-02-23T03:21:21.146Z,95676.78
2023-02-23T03:22:43.656Z,95682.09
2023-02-23T03:24:10.872Z,95689.97
2023-02-23T03:25:39.717Z,95687.53
2023-02-23T03:27:01.907Z,95684.94
2023-02-23T03:28:28.117Z,95681.59
2023-02-23T03:29:52.309Z,95680.75
2023-02-23T03:31:20.441Z,95689.47
2023-02-23T03:32:44.832Z,95687.78
2023-02-23T03:34:10.260Z,95681.53
2023-02-23T03:35:36.463Z,95679.84
2023-02-23T03:36:58.880Z,95684.16
2023-02-23T03:38:21.080Z,95677.34
2023-02-23T03:39:45.888Z,95682.50
2023-02-23T03:41:09.216Z,95683.25
2023-02-23T03:42:31.553Z,95679.00
2023-02-23T03:43:52.633Z,95685.00
2023-02-23T03:45:11.404Z,95686.81
2023-02-23T03:46:32.440Z,95680.81
2023-02-23T03:47:52.618Z,95685.97
2023-02-23T03:49:12.596Z,95680.81
2023-02-23T03:50:37.427Z,95686.88
2023-02-23T03:51:56.777Z,95686.06
2023-02-23T03:53:18.822Z,95685.13
2023-02-23T03:54:42.746Z,95692.03
2023-02-23T03:56:09.150Z,95689.47
2023-02-23T03:57:32.404Z,95684.34
2023-02-23T03:58:56.259Z,95685.97
2023-02-23T04:00:18.613Z,95684.31
2023-02-23T04:01:39.724Z,95688.63
2023-02-23T04:02:58.332Z,95685.97
2023-02-23T04:04:18.651Z,95691.97
2023-02-23T04:05:39.234Z,95686.88
2023-02-23T04:07:00.931Z,95688.53
2023-02-23T04:08:21.553Z,95685.97
2023-02-23T04:09:39.029Z,95691.13
2023-02-23T04:11:03.792Z,95690.28
2023-02-23T04:12:31.895Z,95691.97
2023-02-23T04:13:37.743Z,95685.97
2023-02-23T04:14:50.139Z,95683.34
2023-02-23T04:15:55.414Z,95680.75
2023-02-23T04:16:58.355Z,95684.16
2023-02-23T04:18:03.870Z,95690.97
2023-02-23T04:19:08.403Z,95689.31
2023-02-23T04:20:17.510Z,95685.81
2023-02-23T04:21:20.241Z,95689.19
2023-02-23T04:22:26.641Z,95685.81
2023-02-23T04:23:29.817Z,95687.53
2023-02-23T04:24:34.681Z,95684.94
2023-02-23T04:25:36.916Z,95678.88
2023-02-23T04:26:41.724Z,95687.44
2023-02-23T04:27:52.726Z,95680.56
2023-02-23T04:28:58.842Z,95683.97
2023-02-23T04:30:12.428Z,95676.25
2023-02-23T04:31:19.176Z,95682.22
2023-02-23T04:32:21.781Z,95683.06
2023-02-23T04:33:27.659Z,95684.81
2023-02-23T04:34:29.945Z,95689.03
2023-02-23T04:35:37.585Z,95686.47
2023-02-23T04:36:53.008Z,95688.22
2023-02-23T04:37:56.532Z,95683.06
2023-02-23T04:39:01.456Z,95690.88
2023-02-23T04:40:04.121Z,95684.84
2023-02-23T04:41:10.882Z,95686.56
2023-02-23T04:42:13.246Z,95684.03
2023-02-23T04:43:23.001Z,95690.00
2023-02-23T04:44:27.350Z,95684.03
2023-02-23T04:45:33.640Z,95686.59
2023-02-23T04:46:35.993Z,95688.34
2023-02-23T04:47:41.226Z,95686.56
2023-02-23T04:48:44.785Z,95695.16
2023-02-23T04:49:54.545Z,95688.28
2023-02-23T04:50:56.839Z,95681.41
2023-02-23T04:52:02.052Z,95689.97
2023-02-23T04:53:04.569Z,95687.44
2023-02-23T04:54:10.461Z,95688.34
2023-02-23T04:55:17.958Z,95685.72
2023-02-23T04:56:24.419Z,95687.44
2023-02-23T04:57:31.587Z,95683.13
2023-02-23T04:58:39.262Z,95687.38
2023-02-23T04:59:43.172Z,95684.84
2023-02-23T05:00:53.515Z,95690.88
2023-02-23T05:01:58.154Z,95684.84
2023-02-23T05:03:09.191Z,95686.56
2023-02-23T05:04:13.416Z,95692.53
2023-02-23T05:05:18.531Z,95693.31
2023-02-23T05:06:21.247Z,95689.00
2023-02-23T05:07:26.077Z,95687.31
2023-02-23T05:08:28.428Z,95683.84
2023-02-23T05:09:35.524Z,95689.81
2023-02-23T05:10:40.077Z,95683.75
2023-02-23T05:11:45.401Z,95688.03
2023-02-23T05:12:47.771Z,95684.63
2023-02-23T05:13:55.177Z,95686.31
2023-02-23T05:14:57.935Z,95686.41
2023-02-23T05:16:03.188Z,95690.75
2023-02-23T05:17:06.662Z,95684.03
2023-02-23T05:18:13.147Z,95684.66
2023-02-23T05:19:15.387Z,95687.25
2023-02-23T05:20:20.262Z,95688.03
2023-02-23T05:21:22.390Z,95684.53
2023-02-23T05:22:27.314Z,95683.75
2023-02-23T05:23:29.641Z,95685.44
2023-02-23T05:24:35.941Z,95680.19
2023-02-23T05:25:39.016Z,95686.00
2023-02-23T05:26:44.100Z,95686.06
2023-02-23T05:27:46.288Z,95680.06
2023-02-23T05:28:57.159Z,95682.59
2023-02-23T05:29:59.822Z,95688.56
2023-02-23T05:31:06.515Z,95689.38
2023-02-23T05:32:08.989Z,95686.59
2023-02-23T05:33:15.445Z,95689.09
2023-02-23T05:34:20.039Z,95684.78
2023-02-23T05:35:26.952Z,95689.94
2023-02-23T05:36:30.839Z,95686.59
2023-02-23T05:37:35.785Z,95683.25
2023-02-23T05:38:38.626Z,95687.56
2023-02-23T05:39:43.604Z,95681.56
2023-02-23T05:40:45.886Z,95689.28
2023-02-23T05:41:50.922Z,95690.06
2023-02-23T05:42:58.558Z,95684.13
2023-02-23T05:44:05.962Z,95686.72
2023-02-23T05:45:08.878Z,95681.50
2023-02-23T05:46:16.153Z,95690.91
2023-02-23T05:47:18.489Z,95685.81
2023-02-23T05:48:23.733Z,95685.81
2023-02-23T05:49:27.116Z,95687.50
2023-02-23T05:50:33.450Z,95689.25
2023-02-23T05:51:36.003Z,95693.56
2023-02-23T05:52:42.329Z,95690.91
2023-02-23T05:53:45.065Z,95688.41
2023-02-23T05:54:49.976Z,95690.91
2023-02-23T05:55:53.460Z,95686.59
2023-02-23T05:56:59.781Z,95698.59
2023-02-23T05:58:03.171Z,95685.59
2023-02-23T05:59:12.226Z,95692.50
2023-02-23T06:00:15.111Z,95687.34
2023-02-23T06:01:21.131Z,95689.94
2023-02-23T06:02:26.193Z,95686.47
2023-02-23T06:03:28.313Z,95695.03
2023-02-23T06:04:33.129Z,95696.78
2023-02-23T06:05:35.276Z,95695.09
2023-02-23T06:06:40.164Z,95685.75
2023-02-23T06:07:42.451Z,95696.84
2023-02-23T06:08:48.130Z,95692.66
2023-02-23T06:09:50.420Z,95693.47
2023-02-23T06:10:58.149Z,95692.66
2023-02-23T06:12:01.239Z,95693.56
2023-02-23T06:13:06.085Z,95698.72
2023-02-23T06:14:14.340Z,95695.38
2023-02-23T06:15:20.340Z,95695.38
2023-02-23T06:16:24.843Z,95699.59
2023-02-23T06:17:31.051Z,95699.41
2023-02-23T06:18:35.282Z,95698.59
2023-02-23T06:19:40.157Z,95702.97
2023-02-23T06:20:43.699Z,95709.03
2023-02-23T06:21:48.598Z,95701.31
2023-02-23T06:22:51.016Z,95701.31
2023-02-23T06:24:01.057Z,95706.47
2023-02-23T06:25:06.261Z,95701.31
2023-02-23T06:26:11.602Z,95710.69
2023-02-23T06:27:14.372Z,95703.88
2023-02-23T06:28:19.446Z,95710.66
2023-02-23T06:29:26.593Z,95712.31
2023-02-23T06:30:33.818Z,95710.56
2023-02-23T06:31:39.020Z,95716.50
2023-02-23T06:32:42.531Z,95710.44
2023-02-23T06:33:47.729Z,95705.25
2023-02-23T06:34:49.974Z,95713.63
2023-02-23T06:35:55.912Z,95709.41
2023-02-23T06:36:58.374Z,95712.81
2023-02-23T06:38:06.430Z,95717.97
2023-02-23T06:39:13.729Z,95717.97
2023-02-23T06:40:33.639Z,95723.13
2023-02-23T06:41:38.747Z,95720.50
2023-02-23T06:43:23.147Z,95725.66
2023-02-23T06:44:28.264Z,95722.16
2023-02-23T06:45:33.052Z,95727.19
2023-02-23T06:46:36.320Z,95722.00
2023-02-23T06:47:41.306Z,95716.84
2023-02-23T06:48:59.824Z,95726.19
2023-02-23T06:50:04.145Z,95721.97
2023-02-23T06:51:10.050Z,95722.72
2023-02-23T06:52:13.783Z,95720.84
2023-02-23T06:53:18.579Z,95729.28
2023-02-23T06:54:20.790Z,95729.34
2023-02-23T06:55:25.744Z,95724.25
2023-02-23T06:56:29.297Z,95725.09
2023-02-23T06:57:34.315Z,95721.59
2023-02-23T06:58:39.221Z,95725.91
2023-02-23T06:59:44.354Z,95727.53
2023-02-23T07:00:49.299Z,95723.19
2023-02-23T07:01:55.495Z,95735.97
2023-02-23T07:03:01.491Z,95732.50
2023-02-23T07:04:05.447Z,95733.22
2023-02-23T07:05:12.554Z,95728.94
2023-02-23T07:06:14.983Z,95734.78
2023-02-23T07:07:22.398Z,95733.03
2023-02-23T07:08:24.663Z,95731.22
2023-02-23T07:09:30.705Z,95739.75
2023-02-23T07:10:36.661Z,95732.88
2023-02-23T07:11:43.390Z,95735.34
2023-02-23T07:12:48.336Z,95738.69
2023-02-23T07:13:55.819Z,95736.78
2023-02-23T07:16:07.486Z,95738.75
2023-02-23T07:17:12.727Z,95737.91
2023-02-23T07:18:18.122Z,95741.56
2023-02-23T07:19:20.435Z,95738.19
2023-02-23T07:20:27.342Z,95742.31
2023-02-23T07:21:29.509Z,95738.75
2023-02-23T07:22:34.579Z,95744.03
2023-02-23T07:23:38.017Z,95742.94
2023-02-23T07:24:43.058Z,95744.75
2023-02-23T07:25:50.105Z,95744.75
2023-02-23T07:26:55.064Z,95740.84
2023-02-23T07:27:59.301Z,95741.59
2023-02-23T07:29:05.332Z,95740.44
2023-02-23T07:30:09.479Z,95741.78
2023-02-23T07:31:17.286Z,95744.09
2023-02-23T07:32:21.751Z,95744.84
2023-02-23T07:33:26.871Z,95735.50
2023-02-23T07:34:29.424Z,95741.28
2023-02-23T07:35:34.387Z,95739.69
2023-02-23T07:36:37.487Z,95739.00
2023-02-23T07:37:42.345Z,95737.16
2023-02-23T07:38:44.465Z,95738.72
2023-02-23T07:39:50.948Z,95745.97
2023-02-23T07:40:54.740Z,95749.47
2023-02-23T07:42:00.708Z,95750.66
2023-02-23T07:43:24.003Z,95756.59
2023-02-23T07:44:29.062Z,95755.78
2023-02-23T07:45:31.537Z,95752.13
2023-02-23T07:46:39.168Z,95753.00
2023-02-23T07:47:41.602Z,95741.91
2023-02-23T07:48:47.842Z,95745.69
2023-02-23T07:49:51.229Z,95751.78
2023-02-23T07:50:56.758Z,95750.03
2023-02-23T07:52:00.235Z,95755.25
2023-02-23T07:53:05.320Z,95748.22
2023-02-23T07:54:09.459Z,95744.78
2023-02-23T07:55:15.417Z,95744.72
2023-02-23T07:56:26.393Z,95751.41
2023-02-23T07:57:32.929Z,95750.38
2023-02-23T07:58:36.761Z,95752.91
2023-02-23T07:59:43.695Z,95746.44
2023-02-23T08:00:46.105Z,95743.75
2023-02-23T08:01:54.035Z,95746.34
2023-02-23T08:03:00.333Z,95748.50
2023-02-23T08:04:02.844Z,95743.25
2023-02-23T08:05:08.728Z,95754.50
2023-02-23T08:06:10.763Z,95758.13
2023-02-23T08:07:15.686Z,95755.19
2023-02-23T08:08:17.892Z,95750.38
2023-02-23T08:09:24.545Z,95750.25
2023-02-23T08:10:27.062Z,95755.28
2023-02-23T08:11:32.110Z,95759.72
2023-02-23T08:12:37.680Z,95754.19
2023-02-23T08:13:40.250Z,95754.25
2023-02-23T08:14:45.214Z,95755.25
2023-02-23T08:15:48.753Z,95756.94
2023-02-23T08:16:56.964Z,95759.88
2023-02-23T08:17:59.300Z,95761.50
2023-02-23T08:19:07.417Z,95759.38
2023-02-23T08:20:11.241Z,95756.63
2023-02-23T08:21:16.119Z,95760.28
2023-02-23T08:22:48.743Z,95756.63
2023-02-23T08:23:46.340Z,95757.84
2023-02-23T08:24:52.301Z,95763.69
2023-02-23T08:25:56.163Z,95768.66
2023-02-23T08:27:01.372Z,95766.34
2023-02-23T08:28:07.081Z,95764.00
2023-02-23T08:29:12.530Z,95769.50
2023-02-23T08:30:28.326Z,95768.03
2023-02-23T08:31:35.375Z,95767.34
2023-02-23T08:32:40.847Z,95769.25
2023-02-23T08:33:45.879Z,95770.47
2023-02-23T08:34:54.426Z,95763.59
2023-02-23T08:36:03.392Z,95764.69
2023-02-23T08:37:06.979Z,95764.06
2023-02-23T08:38:12.142Z,95764.31
2023-02-23T08:39:17.075Z,95762.25
2023-02-23T08:40:20.925Z,95767.59
2023-02-23T08:41:27.743Z,95762.03
2023-02-23T08:42:32.604Z,95771.09
2023-02-23T08:43:39.419Z,95771.53
2023-02-23T08:44:45.251Z,95777.41
2023-02-23T08:45:48.621Z,95772.00
2023-02-23T08:46:54.054Z,95767.44
2023-02-23T08:47:58.806Z,95766.84
2023-02-23T08:49:05.937Z,95772.75
2023-02-23T08:50:11.097Z,95771.38
2023-02-23T08:51:17.386Z,95770.78
2023-02-23T08:52:19.692Z,95772.13
2023-02-23T08:53:25.852Z,95772.44
2023-02-23T08:54:30.974Z,95771.94
2023-02-23T08:55:39.747Z,95774.41
2023-02-23T08:56:46.637Z,95771.25
2023-02-23T08:57:48.805Z,95774.13
2023-02-23T08:58:54.598Z,95776.16
2023-02-23T08:59:56.676Z,95780.19
2023-02-23T09:01:02.162Z,95776.25
2023-02-23T09:02:07.468Z,95777.53
2023-02-23T09:03:14.925Z,95776.56
2023-02-23T09:04:18.432Z,95778.00
2023-02-23T09:05:24.859Z,95779.06
2023-02-23T09:06:28.455Z,95780.75
2023-02-23T09:07:33.340Z,95776.91
2023-02-23T09:08:39.104Z,95775.19
2023-02-23T09:09:41.323Z,95775.38
2023-02-23T09:10:48.183Z,95774.75
2023-02-23T09:11:53.426Z,95772.59
2023-02-23T09:12:56.046Z,95771.56
2023-02-23T09:14:05.306Z,95772.88
2023-02-23T09:15:08.996Z,95780.66
2023-02-23T09:16:15.174Z,95787.66
2023-02-23T09:17:18.121Z,95782.16
2023-02-23T09:18:29.882Z,95788.13
2023-02-23T09:19:37.146Z,95783.06
2023-02-23T09:20:45.337Z,95789.72
2023-02-23T09:21:47.846Z,95785.84
2023-02-23T09:22:55.535Z,95784.69
2023-02-23T09:24:06.491Z,95786.75
2023-02-23T09:25:11.354Z,95785.38
2023-02-23T09:26:18.340Z,95787.38
2023-02-23T09:27:22.732Z,95788.03
2023-02-23T09:28:32.161Z,95781.44
2023-02-23T09:29:41.774Z,95783.38
2023-02-23T09:30:48.731Z,95785.16
2023-02-23T09:31:57.777Z,95784.22
2023-02-23T09:33:03.269Z,95787.88
2023-02-23T09:34:10.958Z,95787.50
2023-02-23T09:35:16.632Z,95788.16
2023-02-23T09:36:24.197Z,95789.47
2023-02-23T09:37:27.666Z,95788.28
2023-02-23T09:38:34.302Z,95791.91
2023-02-23T09:39:38.926Z,95793.28
2023-02-23T09:40:50.553Z,95788.16
2023-02-23T09:42:10.750Z,95791.28
2023-02-23T09:43:16.612Z,95785.66
2023-02-23T09:44:32.779Z,95789.00
2023-02-23T09:45:46.717Z,95798.91
2023-02-23T09:46:59.726Z,95787.16
2023-02-23T09:48:18.355Z,95782.88
2023-02-23T09:49:26.475Z,95780.56
2023-02-23T09:50:35.089Z,95788.19
2023-02-23T09:51:56.764Z,95784.63
2023-02-23T09:53:07.581Z,95785.84
2023-02-23T09:54:16.286Z,95784.31
2023-02-23T09:55:18.826Z,95779.44
2023-02-23T09:56:36.877Z,95781.66
2023-02-23T09:57:48.085Z,95781.09
2023-02-23T09:58:53.507Z,95774.88
2023-02-23T09:59:57.289Z,95779.88
2023-02-23T10:01:38.703Z,95782.66
2023-02-23T10:03:02.648Z,95786.50
2023-02-23T10:04:21.814Z,95784.75
2023-02-23T10:05:33.265Z,95790.25
2023-02-23T10:06:37.808Z,95783.13
2023-02-23T10:07:49.243Z,95788.38
2023-02-23T10:09:08.858Z,95786.72
2023-02-23T10:10:28.245Z,95787.91
2023-02-23T10:11:43.592Z,95786.97
2023-02-23T10:12:57.389Z,95791.84
2023-02-23T10:14:15.954Z,95787.69
2023-02-23T10:15:30.843Z,95789.97
2023-02-23T10:16:47.982Z,95785.78
2023-02-23T10:18:06.425Z,95790.22
2023-02-23T10:19:23.211Z,95790.22
2023-02-23T10:20:44.468Z,95792.34
2023-02-23T10:21:57.404Z,95795.00
2023-02-23T10:23:14.513Z,95790.81
2023-02-23T10:24:25.575Z,95783.97
2023-02-23T10:25:35.862Z,95785.97
2023-02-23T10:26:47.529Z,95785.22
2023-02-23T10:27:52.802Z,95792.34
2023-02-23T10:29:00.438Z,95790.63
2023-02-23T10:30:05.588Z,95786.19
2023-02-23T10:31:31.398Z,95784.84
2023-02-23T10:32:43.542Z,95786.97
2023-02-23T10:33:46.607Z,95784.47
2023-02-23T10:34:56.761Z,95779.97
2023-02-23T10:36:16.892Z,95789.16
2023-02-23T10:37:27.495Z,95780.66
2023-02-23T10:38:33.439Z,95779.91
2023-02-23T10:39:44.350Z,95783.38
2023-02-23T10:40:51.561Z,95776.47
2023-02-23T10:41:57.361Z,95775.13
2023-02-23T10:43:01.970Z,95769.69
2023-02-23T10:44:17.204Z,95771.03
2023-02-23T10:45:25.881Z,95770.84
2023-02-23T10:46:41.645Z,95777.09
2023-02-23T10:47:46.846Z,95780.22
2023-02-23T10:48:55.874Z,95778.44
2023-02-23T10:50:01.049Z,95779.22
2023-02-23T10:51:19.909Z,95778.56
2023-02-23T10:52:32.702Z,95773.59
2023-02-23T10:53:40.401Z,95767.63
2023-02-23T10:54:49.823Z,95767.03
2023-02-23T10:56:06.036Z,95765.75
2023-02-23T10:57:08.929Z,95767.19
2023-02-23T10:58:19.872Z,95768.97
2023-02-23T10:59:22.453Z,95762.78
2023-02-23T11:00:33.349Z,95760.25
2023-02-23T11:01:49.150Z,95754.63
2023-02-23T11:03:01.987Z,95745.16
2023-02-23T11:04:19.240Z,95752.13
2023-02-23T11:05:42.055Z,95746.16
2023-02-23T11:06:48.924Z,95754.41
2023-02-23T11:07:57.057Z,95749.84
2023-02-23T11:09:41.347Z,95757.47
2023-02-23T11:11:20.869Z,95753.50
2023-02-23T11:12:29.862Z,95756.63
2023-02-23T11:13:40.347Z,95747.72
2023-02-23T11:14:46.745Z,95743.50
2023-02-23T11:15:51.070Z,95740.03
2023-02-23T11:16:56.381Z,95738.25
2023-02-23T11:18:01.885Z,95740.91
2023-02-23T11:19:09.561Z,95752.25
2023-02-23T11:20:25.171Z,95754.63
2023-02-23T11:21:33.769Z,95753.25
2023-02-23T11:22:43.587Z,95761.25
2023-02-23T11:23:48.670Z,95764.72
2023-02-23T11:24:52.430Z,95748.06
2023-02-23T11:26:00.246Z,95755.00
2023-02-23T11:27:08.782Z,95758.06
2023-02-23T11:28:20.995Z,95747.38
2023-02-23T11:29:35.386Z,95751.25
2023-02-23T11:30:43.219Z,95741.56
2023-02-23T11:31:54.302Z,95750.56
2023-02-23T11:32:59.099Z,95756.13
2023-02-23T11:34:06.011Z,95751.00
2023-02-23T11:35:15.526Z,95757.34
2023-02-23T11:36:29.288Z,95750.34
2023-02-23T11:37:36.636Z,95757.34
2023-02-23T11:38:41.896Z,95750.03
2023-02-23T11:39:55.186Z,95752.28
2023-02-23T11:41:01.939Z,95742.69
2023-02-23T11:42:21.331Z,95739.69
2023-02-23T11:43:23.525Z,95741.47
2023-02-23T11:44:28.497Z,95737.63
2023-02-23T11:45:34.630Z,95738.50
2023-02-23T11:46:52.705Z,95741.75
2023-02-23T11:48:02.431Z,95741.06
2023-02-23T11:49:07.869Z,95741.41
2023-02-23T11:50:25.769Z,95736.47
2023-02-23T11:51:40.391Z,95733.78
2023-02-23T11:52:46.946Z,95740.16
2023-02-23T11:53:52.589Z,95734.31
2023-02-23T11:55:02.887Z,95736.25
2023-02-23T11:56:12.791Z,95730.28
2023-02-23T11:57:26.015Z,95732.81
2023-02-23T11:58:40.135Z,95735.66
2023-02-23T11:59:45.810Z,95727.00
2023-02-23T12:00:59.560Z,95727.53
2023-02-23T12:02:25.183Z,95724.91
2023-02-23T12:03:30.764Z,95724.56
2023-02-23T12:04:38.220Z,95728.88
2023-02-23T12:05:52.089Z,95726.88
2023-02-23T12:07:00.562Z,95723.69
2023-02-23T12:08:11.179Z,95720.97
2023-02-23T12:09:23.549Z,95721.56
2023-02-23T12:10:32.712Z,95712.00
2023-02-23T12:11:44.113Z,95713.63
2023-02-23T12:12:57.693Z,95712.16
2023-02-23T12:14:10.757Z,95710.50
2023-02-23T12:15:21.926Z,95721.97
2023-02-23T12:16:31.503Z,95729.50
2023-02-23T12:17:40.363Z,95718.31
2023-02-23T12:18:53.686Z,95727.75
2023-02-23T12:20:08.728Z,95725.44
2023-02-23T12:21:28.022Z,95716.50
2023-02-23T12:22:43.592Z,95710.38
2023-02-23T12:23:53.023Z,95708.72
2023-02-23T12:25:09.736Z,95704.69
2023-02-23T12:26:20.828Z,95712.84
2023-02-23T12:27:33.289Z,95712.06
2023-02-23T12:28:44.663Z,95707.50
2023-02-23T12:30:09.112Z,95696.81
2023-02-23T12:31:29.245Z,95689.63
2023-02-23T12:32:45.124Z,95687.84
2023-02-23T12:33:54.938Z,95695.09
2023-02-23T12:35:13.680Z,95688.56
2023-02-23T12:36:31.578Z,95693.22
2023-02-23T12:37:42.440Z,95692.56
2023-02-23T12:38:54.835Z,95688.22
2023-02-23T12:40:14.115Z,95686.69
2023-02-23T12:41:26.403Z,95696.06
2023-02-23T12:42:40.741Z,95687.84
2023-02-23T12:43:52.252Z,95690.03
2023-02-23T12:44:57.680Z,95685.72
2023-02-23T12:46:10.616Z,95680.88
2023-02-23T12:47:30.469Z,95682.75
2023-02-23T12:48:47.118Z,95688.00
2023-02-23T12:50:00.582Z,95692.16
2023-02-23T12:51:11.195Z,95689.31
2023-02-23T12:52:22.610Z,95698.47
2023-02-23T12:53:35.088Z,95686.19
2023-02-23T12:54:40.719Z,95682.03
2023-02-23T12:55:58.839Z,95696.88
2023-02-23T12:57:17.077Z,95691.91
2023-02-23T12:58:32.469Z,95688.53
2023-02-23T13:00:03.784Z,95693.19
2023-02-23T13:01:14.848Z,95692.94
2023-02-23T13:02:28.542Z,95686.38
2023-02-23T13:03:59.104Z,95686.03
2023-02-23T13:05:13.639Z,95692.84
2023-02-23T13:06:30.585Z,95693.75
2023-02-23T13:07:45.047Z,95679.53
2023-02-23T13:09:06.176Z,95679.66
2023-02-23T13:10:23.213Z,95673.84
2023-02-23T13:11:49.328Z,95670.44
2023-02-23T13:13:05.295Z,95672.88
2023-02-23T13:14:19.457Z,95660.88
2023-02-23T13:15:31.953Z,95666.25
2023-02-23T13:16:41.712Z,95673.63
2023-02-23T13:17:52.551Z,95664.81
2023-02-23T13:19:22.440Z,95665.75
2023-02-23T13:20:33.866Z,95671.25
2023-02-23T13:21:44.970Z,95682.09
2023-02-23T13:22:55.530Z,95686.31
2023-02-23T13:24:12.124Z,95681.69
2023-02-23T13:25:29.025Z,95683.75
2023-02-23T13:26:55.808Z,95682.75
2023-02-23T13:28:10.014Z,95680.91
2023-02-23T13:29:31.239Z,95672.19
2023-02-23T13:30:38.170Z,95672.66
2023-02-23T13:31:53.911Z,95676.84
2023-02-23T13:33:04.270Z,95679.75
2023-02-23T13:34:11.924Z,95674.28
2023-02-23T13:35:20.633Z,95679.28
2023-02-23T13:37:30.905Z,95673.03
2023-02-23T13:38:44.484Z,95677.00
2023-02-23T13:40:02.519Z,95674.31
2023-02-23T13:41:18.041Z,95677.19
2023-02-23T13:42:45.132Z,95673.16
2023-02-23T13:43:56.102Z,95668.66